sensor_id;sensor_type;location;lat;lon;timestamp;pressure;altitude;pressure_sealevel;temperature;humidity
59831;BME280;45711;50.108;13.712;2023-09-08T00:00:00;98493.22;;;14.85;76.59
59831;BME280;45711;50.108;13.712;2023-09-08T00:02:26;98498.16;;;14.58;78.10
59831;BME280;45711;50.108;13.712;2023-09-08T00:04:54;98500.16;;;14.72;77.66
59831;BME280;45711;50.108;13.712;2023-09-08T00:07:20;98499.53;;;14.75;77.68
59831;BME280;45711;50.108;13.712;2023-09-08T00:09:45;98493.38;;;14.93;76.79
59831;BME280;45711;50.108;13.712;2023-09-08T00:12:11;98504.41;;;14.92;76.51
59831;BME280;45711;50.108;13.712;2023-09-08T00:14:38;98488.34;;;14.68;76.63
59831;BME280;45711;50.108;13.712;2023-09-08T00:17:04;98497.06;;;14.60;77.60
59831;BME280;45711;50.108;13.712;2023-09-08T00:19:29;98488.25;;;14.54;77.11
59831;BME280;45711;50.108;13.712;2023-09-08T00:21:57;98488.25;;;14.54;77.12
59831;BME280;45711;50.108;13.712;2023-09-08T00:24:24;98487.16;;;14.55;77.12
59831;BME280;45711;50.108;13.712;2023-09-08T00:26:49;98491.03;;;14.44;77.45
59831;BME280;45711;50.108;13.712;2023-09-08T00:29:15;98483.75;;;14.25;77.58
59831;BME280;45711;50.108;13.712;2023-09-08T00:31:41;98507.94;;;14.06;77.62
59831;BME280;45711;50.108;13.712;2023-09-08T00:34:07;98494.03;;;14.18;77.47
59831;BME280;45711;50.108;13.712;2023-09-08T00:36:32;98491.34;;;14.18;77.95
59831;BME280;45711;50.108;13.712;2023-09-08T00:38:59;98495.06;;;14.46;77.61
59831;BME280;45711;50.108;13.712;2023-09-08T00:41:25;98493.34;;;14.31;78.12
59831;BME280;45711;50.108;13.712;2023-09-08T00:43:51;98496.50;;;13.67;79.65
59831;BME280;45711;50.108;13.712;2023-09-08T00:46:17;98496.84;;;13.84;79.86
59831;BME280;45711;50.108;13.712;2023-09-08T00:48:42;98488.56;;;14.04;78.61
59831;BME280;45711;50.108;13.712;2023-09-08T00:51:09;98493.16;;;14.04;78.55
59831;BME280;45711;50.108;13.712;2023-09-08T00:53:35;98493.72;;;14.25;77.87
59831;BME280;45711;50.108;13.712;2023-09-08T00:56:03;98494.47;;;14.06;77.24
59831;BME280;45711;50.108;13.712;2023-09-08T00:58:29;98491.09;;;13.96;77.73
59831;BME280;45711;50.108;13.712;2023-09-08T01:00:55;98491.97;;;14.15;76.64
59831;BME280;45711;50.108;13.712;2023-09-08T01:03:22;98490.06;;;14.16;76.48
59831;BME280;45711;50.108;13.712;2023-09-08T01:05:48;98488.94;;;13.98;76.77
59831;BME280;45711;50.108;13.712;2023-09-08T01:08:15;98496.91;;;13.79;77.74
59831;BME280;45711;50.108;13.712;2023-09-08T01:10:41;98497.03;;;13.93;77.83
59831;BME280;45711;50.108;13.712;2023-09-08T01:13:09;98496.00;;;13.89;77.81
59831;BME280;45711;50.108;13.712;2023-09-08T01:15:35;98498.19;;;13.57;78.06
59831;BME280;45711;50.108;13.712;2023-09-08T01:18:00;98503.53;;;13.33;79.21
59831;BME280;45711;50.108;13.712;2023-09-08T01:20:30;98494.63;;;13.38;79.02
59831;BME280;45711;50.108;13.712;2023-09-08T01:23:03;98490.13;;;13.57;78.21
59831;BME280;45711;50.108;13.712;2023-09-08T01:25:39;98494.63;;;13.67;77.96
59831;BME280;45711;50.108;13.712;2023-09-08T01:28:06;98485.41;;;13.44;78.43
59831;BME280;45711;50.108;13.712;2023-09-08T01:30:32;98492.56;;;13.25;80.17
59831;BME280;45711;50.108;13.712;2023-09-08T01:32:59;98500.94;;;13.52;79.31
59831;BME280;45711;50.108;13.712;2023-09-08T01:35:25;98485.34;;;13.49;79.35
59831;BME280;45711;50.108;13.712;2023-09-08T01:37:51;98489.84;;;13.59;78.48
59831;BME280;45711;50.108;13.712;2023-09-08T01:40:16;98489.66;;;13.16;79.12
59831;BME280;45711;50.108;13.712;2023-09-08T01:42:45;98491.13;;;12.98;79.79
59831;BME280;45711;50.108;13.712;2023-09-08T01:45:11;98497.19;;;13.14;80.65
59831;BME280;45711;50.108;13.712;2023-09-08T01:47:37;98497.44;;;13.18;80.20
59831;BME280;45711;50.108;13.712;2023-09-08T01:50:03;98486.06;;;13.31;79.61
59831;BME280;45711;50.108;13.712;2023-09-08T01:52:29;98492.22;;;13.37;78.73
59831;BME280;45711;50.108;13.712;2023-09-08T01:54:54;98487.53;;;13.13;79.07
59831;BME280;45711;50.108;13.712;2023-09-08T01:57:20;98490.25;;;13.08;80.10
59831;BME280;45711;50.108;13.712;2023-09-08T01:59:47;98490.75;;;13.10;79.80
59831;BME280;45711;50.108;13.712;2023-09-08T02:02:13;98488.28;;;13.19;79.31
59831;BME280;45711;50.108;13.712;2023-09-08T02:04:39;98488.50;;;13.27;79.19
59831;BME280;45711;50.108;13.712;2023-09-08T02:07:05;98486.88;;;12.92;79.21
59831;BME280;45711;50.108;13.712;2023-09-08T02:09:31;98490.69;;;12.86;79.62
59831;BME280;45711;50.108;13.712;2023-09-08T02:11:57;98485.44;;;13.05;79.25
59831;BME280;45711;50.108;13.712;2023-09-08T02:14:22;98486.81;;;13.02;79.45
59831;BME280;45711;50.108;13.712;2023-09-08T02:16:49;98478.41;;;13.09;79.84
59831;BME280;45711;50.108;13.712;2023-09-08T02:19:15;98489.50;;;13.02;79.53
59831;BME280;45711;50.108;13.712;2023-09-08T02:21:40;98491.97;;;12.94;80.37
59831;BME280;45711;50.108;13.712;2023-09-08T02:24:06;98490.63;;;12.52;80.71
59831;BME280;45711;50.108;13.712;2023-09-08T02:26:32;98492.06;;;12.78;80.67
59831;BME280;45711;50.108;13.712;2023-09-08T02:28:59;98490.19;;;12.79;79.15
59831;BME280;45711;50.108;13.712;2023-09-08T02:31:26;98484.56;;;12.26;79.64
59831;BME280;45711;50.108;13.712;2023-09-08T02:33:53;98490.53;;;12.07;80.30
59831;BME280;45711;50.108;13.712;2023-09-08T02:36:18;98487.00;;;12.22;81.54
59831;BME280;45711;50.108;13.712;2023-09-08T02:38:50;98485.94;;;12.13;82.01
59831;BME280;45711;50.108;13.712;2023-09-08T02:41:16;98481.28;;;12.39;81.60
59831;BME280;45711;50.108;13.712;2023-09-08T02:43:41;98470.22;;;12.51;80.25
59831;BME280;45711;50.108;13.712;2023-09-08T02:46:07;98478.81;;;12.48;80.57
59831;BME280;45711;50.108;13.712;2023-09-08T02:48:34;98472.28;;;12.64;79.77
59831;BME280;45711;50.108;13.712;2023-09-08T02:51:01;98475.25;;;12.63;79.32
59831;BME280;45711;50.108;13.712;2023-09-08T02:53:27;98476.59;;;12.60;79.46
59831;BME280;45711;50.108;13.712;2023-09-08T02:55:54;98479.28;;;12.60;79.02
59831;BME280;45711;50.108;13.712;2023-09-08T02:58:19;98483.59;;;12.56;79.61
59831;BME280;45711;50.108;13.712;2023-09-08T03:00:45;98481.94;;;12.65;80.40
59831;BME280;45711;50.108;13.712;2023-09-08T03:03:10;98478.53;;;12.54;80.17
59831;BME280;45711;50.108;13.712;2023-09-08T03:05:36;98478.78;;;12.53;79.83
59831;BME280;45711;50.108;13.712;2023-09-08T03:08:04;98484.16;;;12.53;80.39
59831;BME280;45711;50.108;13.712;2023-09-08T03:10:30;98479.09;;;12.46;80.08
59831;BME280;45711;50.108;13.712;2023-09-08T03:12:59;98483.94;;;12.44;80.09
59831;BME280;45711;50.108;13.712;2023-09-08T03:15:25;98484.50;;;12.41;80.34
59831;BME280;45711;50.108;13.712;2023-09-08T03:17:53;98478.91;;;12.32;78.79
59831;BME280;45711;50.108;13.712;2023-09-08T03:20:19;98481.25;;;12.44;78.55
59831;BME280;45711;50.108;13.712;2023-09-08T03:22:45;98483.63;;;11.86;80.42
59831;BME280;45711;50.108;13.712;2023-09-08T03:25:13;98487.13;;;11.66;81.53
59831;BME280;45711;50.108;13.712;2023-09-08T03:27:39;98482.78;;;12.01;81.50
59831;BME280;45711;50.108;13.712;2023-09-08T03:30:05;98479.25;;;12.16;80.32
59831;BME280;45711;50.108;13.712;2023-09-08T03:32:31;98472.91;;;11.81;80.83
59831;BME280;45711;50.108;13.712;2023-09-08T03:34:57;98476.66;;;11.90;81.08
59831;BME280;45711;50.108;13.712;2023-09-08T03:37:22;98474.50;;;11.97;79.67
59831;BME280;45711;50.108;13.712;2023-09-08T03:39:48;98469.34;;;12.11;79.98
59831;BME280;45711;50.108;13.712;2023-09-08T03:42:15;98471.78;;;12.02;79.41
59831;BME280;45711;50.108;13.712;2023-09-08T03:44:40;98465.56;;;12.12;80.23
59831;BME280;45711;50.108;13.712;2023-09-08T03:47:06;98482.31;;;11.89;80.45
59831;BME280;45711;50.108;13.712;2023-09-08T03:49:32;98481.19;;;11.79;79.93
59831;BME280;45711;50.108;13.712;2023-09-08T03:51:58;98479.06;;;11.66;82.25
59831;BME280;45711;50.108;13.712;2023-09-08T03:54:23;98482.88;;;11.55;81.59
59831;BME280;45711;50.108;13.712;2023-09-08T03:56:49;98486.06;;;11.67;82.89
59831;BME280;45711;50.108;13.712;2023-09-08T03:59:16;98482.31;;;11.53;82.54
59831;BME280;45711;50.108;13.712;2023-09-08T04:01:41;98486.63;;;11.59;83.13
59831;BME280;45711;50.108;13.712;2023-09-08T04:04:07;98475.91;;;11.54;83.54
59831;BME280;45711;50.108;13.712;2023-09-08T04:06:33;98485.28;;;11.51;82.35
59831;BME280;45711;50.108;13.712;2023-09-08T04:08:59;98478.84;;;11.52;82.62
59831;BME280;45711;50.108;13.712;2023-09-08T04:11:24;98483.66;;;11.61;81.72
59831;BME280;45711;50.108;13.712;2023-09-08T04:13:51;98477.75;;;11.64;81.72
59831;BME280;45711;50.108;13.712;2023-09-08T04:16:18;98475.06;;;11.69;81.83
59831;BME280;45711;50.108;13.712;2023-09-08T04:18:43;98475.63;;;11.61;81.21
59831;BME280;45711;50.108;13.712;2023-09-08T04:21:10;98483.34;;;11.77;82.33
59831;BME280;45711;50.108;13.712;2023-09-08T04:23:35;98478.56;;;11.59;81.19
59831;BME280;45711;50.108;13.712;2023-09-08T04:26:01;98477.75;;;11.53;80.90
59831;BME280;45711;50.108;13.712;2023-09-08T04:28:26;98475.38;;;11.31;79.45
59831;BME280;45711;50.108;13.712;2023-09-08T04:30:52;98483.97;;;11.23;80.34
59831;BME280;45711;50.108;13.712;2023-09-08T04:33:19;98478.06;;;11.31;81.76
59831;BME280;45711;50.108;13.712;2023-09-08T04:35:44;98479.91;;;11.51;81.33
59831;BME280;45711;50.108;13.712;2023-09-08T04:38:10;98480.47;;;11.33;81.04
59831;BME280;45711;50.108;13.712;2023-09-08T04:40:36;98485.59;;;11.19;81.55
59831;BME280;45711;50.108;13.712;2023-09-08T04:43:02;98479.94;;;11.36;81.79
59831;BME280;45711;50.108;13.712;2023-09-08T04:45:28;98476.72;;;11.34;80.67
59831;BME280;45711;50.108;13.712;2023-09-08T04:47:53;98480.75;;;11.11;81.16
59831;BME280;45711;50.108;13.712;2023-09-08T04:50:20;98479.69;;;11.02;81.04
59831;BME280;45711;50.108;13.712;2023-09-08T04:52:46;98479.94;;;11.00;80.37
59831;BME280;45711;50.108;13.712;2023-09-08T04:55:11;98476.72;;;11.08;81.73
59831;BME280;45711;50.108;13.712;2023-09-08T04:57:37;98472.16;;;11.35;79.61
59831;BME280;45711;50.108;13.712;2023-09-08T05:00:03;98474.81;;;11.55;78.88
59831;BME280;45711;50.108;13.712;2023-09-08T05:02:28;98470.56;;;11.13;80.82
59831;BME280;45711;50.108;13.712;2023-09-08T05:04:54;98482.34;;;11.22;81.10
59831;BME280;45711;50.108;13.712;2023-09-08T05:07:21;98496.53;;;11.23;82.52
59831;BME280;45711;50.108;13.712;2023-09-08T05:09:47;98493.06;;;11.22;81.43
59831;BME280;45711;50.108;13.712;2023-09-08T05:12:12;98501.38;;;11.21;82.15
59831;BME280;45711;50.108;13.712;2023-09-08T05:14:38;98499.50;;;11.42;81.43
59831;BME280;45711;50.108;13.712;2023-09-08T05:17:03;98498.97;;;11.35;82.02
59831;BME280;45711;50.108;13.712;2023-09-08T05:19:30;98495.50;;;11.29;82.17
59831;BME280;45711;50.108;13.712;2023-09-08T05:21:56;98493.34;;;11.31;82.23
59831;BME280;45711;50.108;13.712;2023-09-08T05:24:22;98502.94;;;11.57;81.49
59831;BME280;45711;50.108;13.712;2023-09-08T05:26:48;98498.41;;;11.63;80.75
59831;BME280;45711;50.108;13.712;2023-09-08T05:29:22;98494.41;;;12.46;77.98
59831;BME280;45711;50.108;13.712;2023-09-08T05:31:53;98487.16;;;12.46;75.74
59831;BME280;45711;50.108;13.712;2023-09-08T05:34:19;98474.03;;;12.84;74.83
59831;BME280;45711;50.108;13.712;2023-09-08T05:36:45;98468.66;;;12.89;74.25
59831;BME280;45711;50.108;13.712;2023-09-08T05:39:10;98470.53;;;12.83;74.14
59831;BME280;45711;50.108;13.712;2023-09-08T05:41:42;98476.06;;;12.63;75.72
59831;BME280;45711;50.108;13.712;2023-09-08T06:34:19;98479.00;;;17.63;65.44
59831;BME280;45711;50.108;13.712;2023-09-08T06:36:49;98468.72;;;18.22;64.24
59831;BME280;45711;50.108;13.712;2023-09-08T06:39:15;98477.38;;;17.93;62.95
59831;BME280;45711;50.108;13.712;2023-09-08T06:41:40;98474.75;;;18.85;62.83
59831;BME280;45711;50.108;13.712;2023-09-08T06:44:06;98460.94;;;19.59;58.93
59831;BME280;45711;50.108;13.712;2023-09-08T06:46:32;98464.53;;;19.08;60.15
59831;BME280;45711;50.108;13.712;2023-09-08T06:48:57;98466.97;;;20.12;58.92
59831;BME280;45711;50.108;13.712;2023-09-08T06:51:24;98466.03;;;19.52;58.78
59831;BME280;45711;50.108;13.712;2023-09-08T06:53:54;98464.41;;;19.77;58.54
59831;BME280;45711;50.108;13.712;2023-09-08T06:56:21;98473.50;;;19.81;60.13
59831;BME280;45711;50.108;13.712;2023-09-08T06:58:46;98459.72;;;20.75;56.88
59831;BME280;45711;50.108;13.712;2023-09-08T07:01:12;98464.25;;;21.25;55.21
59831;BME280;45711;50.108;13.712;2023-09-08T07:03:37;98456.25;;;20.87;55.15
59831;BME280;45711;50.108;13.712;2023-09-08T07:06:03;98460.75;;;20.62;58.14
59831;BME280;45711;50.108;13.712;2023-09-08T07:08:30;98461.59;;;22.20;53.66
59831;BME280;45711;50.108;13.712;2023-09-08T07:10:56;98467.25;;;21.90;54.12
59831;BME280;45711;50.108;13.712;2023-09-08T07:13:21;98463.78;;;22.79;51.61
59831;BME280;45711;50.108;13.712;2023-09-08T07:15:47;98467.47;;;22.58;52.37
59831;BME280;45711;50.108;13.712;2023-09-08T07:18:13;98461.19;;;23.39;51.24
59831;BME280;45711;50.108;13.712;2023-09-08T07:20:38;98458.34;;;23.95;48.36
59831;BME280;45711;50.108;13.712;2023-09-08T07:23:04;98461.09;;;23.95;48.78
59831;BME280;45711;50.108;13.712;2023-09-08T07:25:31;98458.78;;;24.13;48.81
59831;BME280;45711;50.108;13.712;2023-09-08T07:27:56;98460.63;;;22.65;52.56
59831;BME280;45711;50.108;13.712;2023-09-08T07:30:22;98446.41;;;24.19;49.04
59831;BME280;45711;50.108;13.712;2023-09-08T07:32:47;98456.72;;;24.25;48.54
59831;BME280;45711;50.108;13.712;2023-09-08T07:35:13;98450.22;;;24.85;46.86
59831;BME280;45711;50.108;13.712;2023-09-08T07:37:42;98452.66;;;24.19;46.00
59831;BME280;45711;50.108;13.712;2023-09-08T07:40:09;98453.34;;;24.48;47.08
59831;BME280;45711;50.108;13.712;2023-09-08T07:42:36;98447.16;;;24.51;45.01
59831;BME280;45711;50.108;13.712;2023-09-08T07:45:02;98441.69;;;24.51;45.06
59831;BME280;45711;50.108;13.712;2023-09-08T07:47:28;98453.72;;;24.30;44.80
59831;BME280;45711;50.108;13.712;2023-09-08T07:50:17;98441.59;;;23.96;45.66
59831;BME280;45711;50.108;13.712;2023-09-08T07:52:44;98446.56;;;24.96;47.51
59831;BME280;45711;50.108;13.712;2023-09-08T07:55:09;98449.41;;;24.14;45.47
59831;BME280;45711;50.108;13.712;2023-09-08T07:57:37;98449.28;;;24.77;47.31
59831;BME280;45711;50.108;13.712;2023-09-08T08:00:03;98444.94;;;24.76;47.34
59831;BME280;45711;50.108;13.712;2023-09-08T08:02:29;98445.44;;;24.62;44.39
59831;BME280;45711;50.108;13.712;2023-09-08T08:04:56;98443.06;;;23.94;47.09
59831;BME280;45711;50.108;13.712;2023-09-08T08:07:22;98448.97;;;24.63;48.37
59831;BME280;45711;50.108;13.712;2023-09-08T08:09:48;98447.06;;;25.21;47.63
59831;BME280;45711;50.108;13.712;2023-09-08T08:12:13;98443.09;;;24.99;48.48
59831;BME280;45711;50.108;13.712;2023-09-08T08:14:40;98446.03;;;24.36;46.59
59831;BME280;45711;50.108;13.712;2023-09-08T08:17:06;98443.75;;;24.22;50.92
59831;BME280;45711;50.108;13.712;2023-09-08T08:19:31;98445.28;;;23.13;50.48
59831;BME280;45711;50.108;13.712;2023-09-08T08:21:57;98444.97;;;22.49;50.22
59831;BME280;45711;50.108;13.712;2023-09-08T08:24:26;98437.50;;;23.15;50.20
59831;BME280;45711;50.108;13.712;2023-09-08T08:26:52;98439.59;;;24.28;51.94
59831;BME280;45711;50.108;13.712;2023-09-08T08:29:17;98428.47;;;23.70;50.65
59831;BME280;45711;50.108;13.712;2023-09-08T08:31:44;98432.38;;;24.20;51.34
59831;BME280;45711;50.108;13.712;2023-09-08T08:34:10;98423.22;;;22.77;49.75
59831;BME280;45711;50.108;13.712;2023-09-08T08:36:38;98431.78;;;23.20;54.31
59831;BME280;45711;50.108;13.712;2023-09-08T08:39:06;98418.03;;;23.44;48.61
59831;BME280;45711;50.108;13.712;2023-09-08T08:41:32;98430.56;;;22.24;54.62
59831;BME280;45711;50.108;13.712;2023-09-08T08:44:13;98421.81;;;22.83;53.09
59831;BME280;45711;50.108;13.712;2023-09-08T08:46:41;98415.13;;;23.53;48.73
59831;BME280;45711;50.108;13.712;2023-09-08T08:49:15;98422.63;;;21.70;53.43
59831;BME280;45711;50.108;13.712;2023-09-08T08:51:44;98424.97;;;22.45;54.85
59831;BME280;45711;50.108;13.712;2023-09-08T08:54:11;98417.34;;;23.19;49.90
59831;BME280;45711;50.108;13.712;2023-09-08T08:56:38;98416.56;;;23.78;49.27
59831;BME280;45711;50.108;13.712;2023-09-08T08:59:04;98416.59;;;23.50;51.32
59831;BME280;45711;50.108;13.712;2023-09-08T09:01:30;98427.47;;;22.50;52.22
59831;BME280;45711;50.108;13.712;2023-09-08T09:03:57;98421.91;;;21.49;54.99
59831;BME280;45711;50.108;13.712;2023-09-08T09:06:24;98415.81;;;21.89;54.51
59831;BME280;45711;50.108;13.712;2023-09-08T09:08:50;98414.84;;;22.58;53.00
59831;BME280;45711;50.108;13.712;2023-09-08T09:11:16;98414.31;;;22.80;51.95
59831;BME280;45711;50.108;13.712;2023-09-08T09:13:41;98407.91;;;23.01;50.50
59831;BME280;45711;50.108;13.712;2023-09-08T09:16:07;98416.78;;;21.35;55.02
59831;BME280;45711;50.108;13.712;2023-09-08T09:18:53;98404.38;;;21.25;56.07
59831;BME280;45711;50.108;13.712;2023-09-08T09:21:20;98400.03;;;22.19;53.11
59831;BME280;45711;50.108;13.712;2023-09-08T09:23:47;98410.00;;;21.53;55.48
59831;BME280;45711;50.108;13.712;2023-09-08T09:26:23;98409.78;;;22.72;52.54
59831;BME280;45711;50.108;13.712;2023-09-08T09:28:49;98396.69;;;24.68;46.46
59831;BME280;45711;50.108;13.712;2023-09-08T09:31:17;98399.59;;;22.17;53.04
59831;BME280;45711;50.108;13.712;2023-09-08T09:33:43;98396.53;;;23.43;49.63
59831;BME280;45711;50.108;13.712;2023-09-08T09:36:08;98395.84;;;24.28;47.31
59831;BME280;45711;50.108;13.712;2023-09-08T09:38:35;98392.50;;;23.68;48.81
59831;BME280;45711;50.108;13.712;2023-09-08T09:41:02;98384.66;;;23.82;48.26
59831;BME280;45711;50.108;13.712;2023-09-08T09:43:28;98389.81;;;24.74;46.70
59831;BME280;45711;50.108;13.712;2023-09-08T09:45:55;98379.34;;;23.26;49.57
59831;BME280;45711;50.108;13.712;2023-09-08T09:48:21;98388.53;;;23.81;50.73
59831;BME280;45711;50.108;13.712;2023-09-08T09:50:48;98387.72;;;23.49;50.64
59831;BME280;45711;50.108;13.712;2023-09-08T09:53:15;98385.59;;;24.80;45.79
59831;BME280;45711;50.108;13.712;2023-09-08T09:55:43;98386.50;;;23.03;50.20
59831;BME280;45711;50.108;13.712;2023-09-08T09:58:10;98387.41;;;22.02;54.00
59831;BME280;45711;50.108;13.712;2023-09-08T10:00:37;98373.00;;;25.37;44.89
59831;BME280;45711;50.108;13.712;2023-09-08T10:03:04;98371.03;;;23.23;50.06
59831;BME280;45711;50.108;13.712;2023-09-08T10:05:29;98376.28;;;23.00;50.71
59831;BME280;45711;50.108;13.712;2023-09-08T10:07:55;98380.34;;;23.06;50.27
59831;BME280;45711;50.108;13.712;2023-09-08T10:10:22;98365.72;;;24.09;47.76
59831;BME280;45711;50.108;13.712;2023-09-08T10:12:52;98369.16;;;23.11;51.75
59831;BME280;45711;50.108;13.712;2023-09-08T10:15:21;98366.41;;;23.71;48.73
59831;BME280;45711;50.108;13.712;2023-09-08T10:17:52;98368.81;;;22.04;53.63
59831;BME280;45711;50.108;13.712;2023-09-08T10:20:18;98363.31;;;23.25;51.24
59831;BME280;45711;50.108;13.712;2023-09-08T10:22:48;98360.28;;;24.28;47.99
59831;BME280;45711;50.108;13.712;2023-09-08T10:25:16;98351.59;;;23.40;49.58
59831;BME280;45711;50.108;13.712;2023-09-08T10:27:44;98354.25;;;25.16;45.33
59831;BME280;45711;50.108;13.712;2023-09-08T10:30:10;98347.00;;;23.28;49.97
59831;BME280;45711;50.108;13.712;2023-09-08T10:32:39;98344.44;;;24.18;47.41
59831;BME280;45711;50.108;13.712;2023-09-08T10:35:07;98344.88;;;24.98;44.58
59831;BME280;45711;50.108;13.712;2023-09-08T10:37:33;98333.81;;;23.78;47.91
59831;BME280;45711;50.108;13.712;2023-09-08T10:40:21;98344.31;;;21.92;54.06
59831;BME280;45711;50.108;13.712;2023-09-08T10:42:47;98337.34;;;23.98;47.27
59831;BME280;45711;50.108;13.712;2023-09-08T10:45:17;98340.38;;;25.28;43.34
59831;BME280;45711;50.108;13.712;2023-09-08T10:48:05;98331.94;;;23.50;48.24
59831;BME280;45711;50.108;13.712;2023-09-08T10:50:32;98333.88;;;24.36;46.12
59831;BME280;45711;50.108;13.712;2023-09-08T10:53:09;98326.03;;;23.48;49.42
59831;BME280;45711;50.108;13.712;2023-09-08T10:55:37;98333.59;;;24.80;45.81
59831;BME280;45711;50.108;13.712;2023-09-08T10:58:06;98330.28;;;23.77;47.62
59831;BME280;45711;50.108;13.712;2023-09-08T11:00:43;98323.75;;;23.66;48.22
59831;BME280;45711;50.108;13.712;2023-09-08T11:03:11;98325.09;;;23.25;49.01
59831;BME280;45711;50.108;13.712;2023-09-08T11:05:37;98336.50;;;22.99;50.48
59831;BME280;45711;50.108;13.712;2023-09-08T11:08:03;98328.59;;;23.10;49.44
59831;BME280;45711;50.108;13.712;2023-09-08T11:10:29;98324.28;;;23.08;49.75
59831;BME280;45711;50.108;13.712;2023-09-08T11:12:56;98326.06;;;24.73;42.59
59831;BME280;45711;50.108;13.712;2023-09-08T11:15:21;98322.38;;;24.46;45.54
59831;BME280;45711;50.108;13.712;2023-09-08T11:17:47;98320.59;;;24.35;43.82
59831;BME280;45711;50.108;13.712;2023-09-08T11:20:26;98319.69;;;25.08;41.38
59831;BME280;45711;50.108;13.712;2023-09-08T11:22:51;98319.94;;;25.03;43.59
59831;BME280;45711;50.108;13.712;2023-09-08T11:25:17;98318.91;;;23.12;48.89
59831;BME280;45711;50.108;13.712;2023-09-08T11:27:43;98321.00;;;24.17;44.96
59831;BME280;45711;50.108;13.712;2023-09-08T11:30:12;98318.22;;;25.14;41.93
59831;BME280;45711;50.108;13.712;2023-09-08T11:32:39;98311.91;;;25.10;42.75
59831;BME280;45711;50.108;13.712;2023-09-08T11:35:06;98313.69;;;23.86;46.98
59831;BME280;45711;50.108;13.712;2023-09-08T11:37:34;98315.25;;;24.22;45.95
59831;BME280;45711;50.108;13.712;2023-09-08T11:40:00;98316.81;;;22.49;50.84
59831;BME280;45711;50.108;13.712;2023-09-08T11:42:28;98299.09;;;22.99;48.18
59831;BME280;45711;50.108;13.712;2023-09-08T11:44:56;98305.47;;;25.02;42.58
59831;BME280;45711;50.108;13.712;2023-09-08T11:47:23;98297.47;;;23.62;47.06
59831;BME280;45711;50.108;13.712;2023-09-08T11:49:48;98293.94;;;24.12;45.88
59831;BME280;45711;50.108;13.712;2023-09-08T11:52:17;98290.44;;;24.70;45.18
59831;BME280;45711;50.108;13.712;2023-09-08T11:54:44;98296.47;;;25.48;42.72
59831;BME280;45711;50.108;13.712;2023-09-08T11:57:14;98298.16;;;23.90;47.07
59831;BME280;45711;50.108;13.712;2023-09-08T11:59:44;98299.66;;;25.76;42.72
59831;BME280;45711;50.108;13.712;2023-09-08T12:02:13;98293.34;;;24.80;44.10
59831;BME280;45711;50.108;13.712;2023-09-08T12:04:39;98287.91;;;24.61;44.91
59831;BME280;45711;50.108;13.712;2023-09-08T12:07:05;98274.94;;;24.77;43.99
59831;BME280;45711;50.108;13.712;2023-09-08T12:09:31;98280.66;;;24.92;43.97
59831;BME280;45711;50.108;13.712;2023-09-08T12:12:02;98275.66;;;23.97;47.30
59831;BME280;45711;50.108;13.712;2023-09-08T12:14:28;98274.50;;;23.98;46.90
59831;BME280;45711;50.108;13.712;2023-09-08T12:17:05;98278.00;;;23.79;47.92
59831;BME280;45711;50.108;13.712;2023-09-08T12:19:32;98273.56;;;24.10;47.12
59831;BME280;45711;50.108;13.712;2023-09-08T12:22:03;98277.03;;;25.30;43.17
59831;BME280;45711;50.108;13.712;2023-09-08T12:24:48;98270.78;;;23.55;48.02
59831;BME280;45711;50.108;13.712;2023-09-08T12:27:23;98275.66;;;22.26;52.86
59831;BME280;45711;50.108;13.712;2023-09-08T12:29:53;98266.41;;;22.59;52.49
59831;BME280;45711;50.108;13.712;2023-09-08T12:32:19;98266.19;;;22.36;52.93
59831;BME280;45711;50.108;13.712;2023-09-08T12:34:46;98269.25;;;25.85;40.94
59831;BME280;45711;50.108;13.712;2023-09-08T12:37:11;98264.78;;;25.24;43.76
59831;BME280;45711;50.108;13.712;2023-09-08T12:39:38;98248.78;;;22.84;51.73
59831;BME280;45711;50.108;13.712;2023-09-08T12:42:06;98256.47;;;25.17;45.01
59831;BME280;45711;50.108;13.712;2023-09-08T12:44:33;98262.44;;;23.99;47.62
59831;BME280;45711;50.108;13.712;2023-09-08T12:46:59;98252.69;;;23.15;48.61
59831;BME280;45711;50.108;13.712;2023-09-08T12:49:24;98253.53;;;22.88;51.87
59831;BME280;45711;50.108;13.712;2023-09-08T12:51:53;98246.59;;;24.27;46.70
59831;BME280;45711;50.108;13.712;2023-09-08T12:54:18;98246.22;;;24.29;44.99
59831;BME280;45711;50.108;13.712;2023-09-08T12:56:44;98235.72;;;24.50;45.21
59831;BME280;45711;50.108;13.712;2023-09-08T12:59:09;98240.97;;;25.77;41.99
59831;BME280;45711;50.108;13.712;2023-09-08T13:01:36;98236.41;;;24.90;42.67
59831;BME280;45711;50.108;13.712;2023-09-08T13:04:02;98235.25;;;25.63;41.46
59831;BME280;45711;50.108;13.712;2023-09-08T13:06:27;98228.75;;;23.95;47.75
59831;BME280;45711;50.108;13.712;2023-09-08T13:08:55;98237.00;;;25.22;42.04
59831;BME280;45711;50.108;13.712;2023-09-08T13:11:20;98232.81;;;22.99;50.96
59831;BME280;45711;50.108;13.712;2023-09-08T13:13:46;98230.97;;;23.89;46.57
59831;BME280;45711;50.108;13.712;2023-09-08T13:16:14;98230.22;;;25.16;42.78
59831;BME280;45711;50.108;13.712;2023-09-08T13:18:43;98234.16;;;26.62;37.26
59831;BME280;45711;50.108;13.712;2023-09-08T13:21:10;98231.13;;;23.96;45.53
59831;BME280;45711;50.108;13.712;2023-09-08T13:23:36;98226.13;;;25.06;42.87
59831;BME280;45711;50.108;13.712;2023-09-08T13:26:01;98231.38;;;23.05;50.60
59831;BME280;45711;50.108;13.712;2023-09-08T13:28:27;98231.00;;;25.16;42.33
59831;BME280;45711;50.108;13.712;2023-09-08T13:30:52;98228.97;;;24.05;45.56
59831;BME280;45711;50.108;13.712;2023-09-08T13:33:18;98213.06;;;25.19;43.20
59831;BME280;45711;50.108;13.712;2023-09-08T13:35:45;98224.59;;;23.81;47.71
59831;BME280;45711;50.108;13.712;2023-09-08T13:38:10;98220.81;;;25.66;40.05